• Join FlightAware (Why Join?)
  • Login
  • US Flag 
12:07AM EST


 

Airport Tracker/Info


-or-


 

Live Flight TrackerFlight Track Log ✈ N9669C ✈ 25-Aug-2013 ✈ KPJC - KBQR

Flight Track Log - Related Links

Times and Time Zones

All times are in EDT time to prevent confusion due to time zone crossing. See the N9669C flight status page for this flight to view local times or setup timezone preferences in your user account.

Time Position Orientation Groundspeed Altitude Reporting Facility
EDT Latitude Longitude Course Direction KTS MPH feet Rate Location/Type
10:39AM 40.8800 -80.1022 28° Northeast 100 115 3,600  Level Cleveland Center
10:40AM 40.9036 -80.0842 30° Northeast 99 114 4,100 480 Climbing Cleveland Center
10:41AM 40.9267 -80.0672 29° Northeast 96 110 4,700 480 Climbing Cleveland Center
10:42AM 40.9503 -80.0511 27° Northeast 94 108 5,200 420 Climbing Cleveland Center
10:43AM 41.0089 -80.0147 28° Northeast  Level Estimated
10:43AM 40.9733 -80.0336 30° Northeast 95 109 5,600  Level Cleveland Center
10:44AM 41.0434 -79.9903 28° Northeast  Level Estimated
10:44AM 41.0067 -80.0097 28° Northeast 113 130 5,600  Level Cleveland Center
10:45AM 41.0381 -79.9897 26° Northeast 123 142 5,600 -60 Level Cleveland Center
10:46AM 41.0664 -79.9694 28° Northeast 117 135 5,500 -60 Descending Cleveland Center
10:47AM 41.0950 -79.9483 29° Northeast 118 136 5,500  Level Cleveland Center
10:48AM 41.1239 -79.9308 25° Northeast 115 132 5,500  Level Cleveland Center
10:49AM 41.1553 -79.9039 33° Northeast 119 137 5,500  Level Cleveland Center
10:50AM 41.1858 -79.8836 27° Northeast 122 140 5,600  Climbing Cleveland Center
10:51AM 41.2169 -79.8625 27° Northeast 124 143 5,600 -60 Level Cleveland Center
10:52AM 41.2533 -79.8369 28° Northeast 125 144 5,500  Descending Cleveland Center
10:53AM 41.2831 -79.8139 30° Northeast 125 144 5,600  Climbing Cleveland Center
10:54AM 41.3133 -79.7925 28° Northeast 125 144 5,600  Level Cleveland Center
10:55AM 41.3442 -79.7703 28° Northeast 125 144 5,600 -60 Level Cleveland Center
10:56AM 41.3736 -79.7500 27° Northeast 121 139 5,500 -60 Descending Cleveland Center
10:57AM 41.4033 -79.7292 28° Northeast 122 140 5,500  Level Cleveland Center
10:58AM 41.4383 -79.7019 30° Northeast 121 139 5,500  Level Cleveland Center
10:59AM 41.4669 -79.6808 29° Northeast 119 137 5,500  Level Cleveland Center
11:00AM 41.4961 -79.6583 30° Northeast 120 138 5,600  Climbing Cleveland Center
11:01AM 41.5269 -79.6369 27° Northeast 123 142 5,600 -60 Level Cleveland Center
11:02AM 41.5572 -79.6136 30° Northeast 126 145 5,500  Descending Cleveland Center
11:03AM 41.5942 -79.5917 24° Northeast 123 142 5,600  Climbing Cleveland Center
11:04AM 41.6250 -79.5706 27° Northeast 124 143 5,600  Level Cleveland Center
11:06AM 41.6550 -79.5478 30° Northeast 125 144 5,600  Level Cleveland Center
11:07AM 41.6847 -79.5247 30° Northeast 124 143 5,600 -60 Level Cleveland Center
11:08AM 41.7164 -79.5017 29° Northeast 128 147 5,500  Descending Cleveland Center
11:09AM 41.7531 -79.4756 28° Northeast 127 146 5,600  Climbing Cleveland Center
11:10AM 41.7831 -79.4508 32° Northeast 127 146 5,500  Descending Cleveland Center
11:11AM 41.8142 -79.4311 25° Northeast 126 145 5,600  Climbing Cleveland Center
11:12AM 41.8447 -79.4106 27° Northeast 124 143 5,600  Level Cleveland Center
11:13AM 41.8756 -79.3900 26° Northeast 125 144 5,600  Level Cleveland Center
11:14AM 41.9125 -79.3628 29° Northeast 126 145 5,600  Level Cleveland Center
11:15AM 41.9436 -79.3414 27° Northeast 126 145 5,600  Level Cleveland Center
11:16AM 41.9769 -79.3183 27° Northeast 128 147 5,600  Level Cleveland Center
11:17AM 42.0064 -79.2894 36° Northeast 125 144 5,600  Level Cleveland Center
11:18AM 42.0383 -79.2672 27° Northeast 125 144 5,600  Level Cleveland Center
11:19AM 42.0686 -79.2411 33° Northeast 130 150 5,600  Level Cleveland Center
11:20AM 42.1011 -79.2164 29° Northeast 130 150 5,600  Level Cleveland Center
11:21AM 42.1336 -79.1933 28° Northeast 129 148 5,600  Level Cleveland Center
11:22AM 42.1669 -79.1667 31° Northeast 133 153 5,600  Level Cleveland Center
11:23AM 42.1981 -79.1419 30° Northeast 127 146 5,600  Level Cleveland Center
11:24AM 42.2289 -79.1192 29° Northeast 131 151 5,600  Level Cleveland Center
11:25AM 42.2631 -79.0942 28° Northeast 128 147 5,600  Level Cleveland Center
11:26AM 42.2967 -79.0808 16° North 125 144 5,600  Level Cleveland Center
11:27AM 42.3289 -79.0614 24° Northeast 124 143 5,600  Level Cleveland Center
11:28AM 42.3608 -79.0342 32° Northeast 130 150 5,600  Level Cleveland Center
11:29AM 42.3933 -79.0078 31° Northeast 131 151 5,600  Level Cleveland Center
11:30AM 42.4242 -78.9856 28° Northeast 131 151 5,600  Level Cleveland Center
11:31AM 42.4572 -78.9592 30° Northeast 131 151 5,600  Level Cleveland Center
11:32AM 42.4903 -78.9350 28° Northeast 130 150 5,600 -60 Level Cleveland Center
11:33AM 42.5222 -78.9108 29° Northeast 128 147 5,500  Descending Cleveland Center
11:34AM 42.5544 -78.8928 22° Northeast 131 151 5,600  Climbing Cleveland Center
11:35AM 42.5881 -78.8644 32° Northeast 126 145 5,500 -60 Descending Cleveland Center
11:36AM 42.6175 -78.8414 30° Northeast 127 146 5,500  Level Cleveland Center
11:37AM 42.6511 -78.8211 24° Northeast 127 146 5,500 -420 Level Cleveland Center
11:39AM 42.6881 -78.8108 12° North 129 148 4,700 -780 Descending Cleveland Center
11:40AM 42.7264 -78.7869 25° Northeast 144 166 4,000 -600 Descending Cleveland Center
11:41AM 42.7581 -78.7572 35° Northeast 134 154 3,500 -540 Descending Cleveland Center
11:42AM 42.7906 -78.7294 32° Northeast 131 151 2,900 -480 Descending Cleveland Center
11:43AM 42.8203 -78.7014 35° Northeast 134 154 2,600 -300 Descending Cleveland Center
11:44AM 42.8528 -78.6781 28° Northeast 129 148 2,400 -240 Descending Cleveland Center
11:45AM 42.8806 -78.6567 29° Northeast 128 147 2,200 -420 Descending Cleveland Center
11:45AM 42.9000 -78.6333 41° Northeast 128 147 1,800 -360 Descending Buffalo TRACON
11:47AM 42.9167 -78.5833 66° East 107 123 1,600 -360 Descending Buffalo TRACON
11:48AM 42.9333 -78.6000 324° Northwest 72 83 1,100 -540 Descending Buffalo TRACON
11:50AM 42.9167 -78.6000 180° South  Level FlightAware Approximate